This demonstration page uses our WeatherBlox Daily Observations layout. Learn more.

36.17497, -115.13722

Hourly Observations for June 19, 2015

Temp ( °F °C ) Dew Point ( °F °C ) Humidity (%) Winds ( mph kmh ) Pressure ( in mb ) Visibility ( mi km ) Precip ( " mm )
12:53 am 00:53 Clear 86 30 15 -9.4 7 7 ENE 6 9 29.74 1007 10 16.0934 0 0
1:53 am 01:53 Clear 84 28.9 16 -8.9 8 8 NE 5 7 29.74 1007 10 16.0934 0 0
2:53 am 02:53 Clear 82 27.8 15 -9.4 8 8 NE 5 7 29.75 1007 10 16.0934 0 0
3:53 am 03:53 Clear 81 27.2 17 -8.3 9 9 N 10 17 29.75 1008 10 16.0934 0 0
4:53 am 04:53 Clear 81 27.2 17 -8.3 9 9 NW 6 9 29.77 1008 10 16.0934 0 0
5:53 am 05:53 Sunny 76 24.4 18 -7.8 11 11 NNW 7 11 29.79 1009 10 16.0934 0 0
6:53 am 06:53 Sunny 81 27.2 21 -6.1 11 11 N 7 11 29.8 1009 10 16.0934 0 0
7:53 am 07:53 Sunny 87 30.6 14 -10 6 6 NE 5 7 29.81 1009 10 16.0934 0 0
8:53 am 08:53 Sunny 89 31.7 13 -10.6 6 6 Calm 29.82 1010 10 16.0934 0 0
9:53 am 09:53 Sunny 92 33.3 12 -11.1 5 5 VRB 6 9 29.81 1010 10 16.0934 0 0
10:53 am 10:53 Sunny 95 35 9 -12.8 4 4 SSE 5 7 29.81 1010 10 16.0934 0 0
11:53 am 11:53 Sunny 99 37.2 3 -16.1 3 3 undefined N/A 29.8 1009 10 16.0934 0 0
12:53 pm 12:53 Sunny 101 38.3 1 -17.2 2 2 VRB 6 9 29.78 1009 10 16.0934 0 0
1:53 pm 13:53 Sunny 103 39.4 -3 -19.4 2 2 SE 6 9 29.76 1008 10 16.0934 0 0
2:53 pm 14:53 Sunny 105 40.6 -5 -20.6 1 1 S 8 13 29.73 1007 10 16.0934 0 0
3:53 pm 15:53 Sunny 106 41.1 -7 -21.7 1 1 E 7 11 29.7 1006 10 16.0934 0 0
4:53 pm 16:53 Sunny 108 42.2 -9 -22.8 1 1 S 8 13 29.68 1005 10 16.0934 0 0
5:53 pm 17:53 Sunny 108 42.2 -11 -23.9 1 1 E 8 13 29.67 1005 10 16.0934 0 0
6:53 pm 18:53 Sunny 106 41.1 -1 -18.3 2 2 ESE 12 19 29.67 1005 10 16.0934 0 0
7:53 pm 19:53 Sunny 103 39.4 7 -13.9 3 3 E 6 9 29.67 1005 10 16.0934 0 0
8:53 pm 20:53 Clear 102 38.9 4 -15.6 2 2 SW 5 7 29.67 1005 10 16.0934 0 0
9:53 pm 21:53 Clear 96 35.6 18 -7.8 6 6 W 6 9 29.69 1006 10 16.0934 0 0
10:53 pm 22:53 Clear 92 33.3 16 -8.9 6 6 NW 3 6 29.7 1006 10 16.0934 0 0
11:53 pm 23:53 Clear 91 32.8 14 -10 6 6 W 3 6 29.7 1006 10 16.0934 0 0

Powered by AerisWeather